createdAt,value
2023-03-17T00:00:08.697Z,4.20
2023-03-17T00:02:42.499Z,4.20
2023-03-17T00:05:24.431Z,4.20
2023-03-17T00:07:55.633Z,4.20
2023-03-17T00:10:27.085Z,4.20
2023-03-17T00:12:55.606Z,4.40
2023-03-17T00:15:26.865Z,4.20
2023-03-17T00:17:56.294Z,4.40
2023-03-17T00:20:28.760Z,4.30
2023-03-17T00:23:00.127Z,4.30
2023-03-17T00:25:30.075Z,4.40
2023-03-17T00:28:03.673Z,4.20
2023-03-17T00:30:31.309Z,4.30
2023-03-17T00:32:59.255Z,4.10
2023-03-17T00:35:35.596Z,4.30
2023-03-17T00:38:07.097Z,4.20
2023-03-17T00:40:36.571Z,4.40
2023-03-17T00:43:08.783Z,4.30
2023-03-17T00:45:36.246Z,4.40
2023-03-17T00:48:04.187Z,4.30
2023-03-17T00:50:32.261Z,4.30
2023-03-17T00:52:59.710Z,4.40
2023-03-17T00:55:27.671Z,4.40
2023-03-17T00:57:59.593Z,4.40
2023-03-17T01:00:31.936Z,4.30
2023-03-17T01:02:59.777Z,4.40
2023-03-17T01:05:28.606Z,4.30
2023-03-17T01:08:07.926Z,4.20
2023-03-17T01:10:36.549Z,4.30
2023-03-17T01:13:07.641Z,4.30
2023-03-17T01:15:35.847Z,4.20
2023-03-17T01:18:03.396Z,4.20
2023-03-17T01:20:39.111Z,4.20
2023-03-17T01:23:07.302Z,4.20
2023-03-17T01:25:35.257Z,4.10
2023-03-17T01:28:03.548Z,4.10
2023-03-17T01:30:40.666Z,3.90
2023-03-17T01:33:10.217Z,4.10
2023-03-17T01:35:41.189Z,4.20
2023-03-17T01:38:09.030Z,4.00
2023-03-17T01:40:47.202Z,4.10
2023-03-17T01:43:18.137Z,4.00
2023-03-17T01:46:17.044Z,4.10
2023-03-17T01:49:17.159Z,4.00
2023-03-17T01:52:03.101Z,3.70
2023-03-17T01:55:04.023Z,4.00
2023-03-17T01:57:42.845Z,3.90
2023-03-17T02:00:19.006Z,3.90
2023-03-17T02:02:52.887Z,3.70
2023-03-17T02:05:30.425Z,3.80
2023-03-17T02:08:10.825Z,3.80
2023-03-17T02:10:56.528Z,3.80
2023-03-17T02:13:27.191Z,3.80
2023-03-17T02:15:54.827Z,3.80
2023-03-17T02:18:30.597Z,3.80
2023-03-17T02:20:58.151Z,3.90
2023-03-17T02:23:25.729Z,3.90
2023-03-17T02:25:54.592Z,3.90
2023-03-17T02:28:28.466Z,3.90
2023-03-17T02:30:55.692Z,4.00
2023-03-17T02:33:25.486Z,3.90
2023-03-17T02:35:53.258Z,3.90
2023-03-17T02:38:20.617Z,3.80
2023-03-17T02:40:51.319Z,4.00
2023-03-17T02:43:18.898Z,4.10
2023-03-17T02:45:46.396Z,4.10
2023-03-17T02:48:14.400Z,4.10
2023-03-17T02:50:42.444Z,4.20
2023-03-17T02:53:13.288Z,4.00
2023-03-17T02:55:49.701Z,4.00
2023-03-17T02:58:17.653Z,3.90
2023-03-17T03:00:44.983Z,3.90
2023-03-17T03:03:28.148Z,3.70
2023-03-17T03:06:03.012Z,3.70
2023-03-17T03:08:31.034Z,3.70
2023-03-17T03:11:00.319Z,3.50
2023-03-17T03:13:30.151Z,3.30
2023-03-17T03:15:57.903Z,3.40
2023-03-17T03:18:26.335Z,3.30
2023-03-17T03:20:54.205Z,3.30
2023-03-17T03:23:24.583Z,3.50
2023-03-17T03:25:52.071Z,3.20
2023-03-17T03:28:19.881Z,3.60
2023-03-17T03:30:50.770Z,3.30
2023-03-17T03:33:18.816Z,3.40
2023-03-17T03:35:55.815Z,3.40
2023-03-17T03:38:26.278Z,3.50
2023-03-17T03:40:53.932Z,3.60
2023-03-17T03:43:27.631Z,3.60
2023-03-17T03:45:54.893Z,3.50
2023-03-17T03:48:23.035Z,3.70
2023-03-17T03:50:53.563Z,3.60
2023-03-17T03:53:28.614Z,3.60
2023-03-17T03:56:05.561Z,3.60
2023-03-17T03:58:33.373Z,3.50
2023-03-17T04:01:07.538Z,3.70
2023-03-17T04:03:34.756Z,3.60
2023-03-17T04:06:02.277Z,3.60
2023-03-17T04:08:30.418Z,3.50
2023-03-17T04:11:00.460Z,3.70
2023-03-17T04:13:36.706Z,3.70
2023-03-17T04:16:04.410Z,3.70
2023-03-17T04:18:34.553Z,3.80
2023-03-17T04:21:14.230Z,3.60
2023-03-17T04:23:41.628Z,3.70
2023-03-17T04:26:12.640Z,3.80
2023-03-17T04:28:41.116Z,3.80
2023-03-17T04:31:13.175Z,3.70
2023-03-17T04:33:41.054Z,3.90
2023-03-17T04:36:14.090Z,3.60
2023-03-17T04:38:42.609Z,3.60
2023-03-17T04:41:10.478Z,3.50
2023-03-17T04:43:38.808Z,3.70
2023-03-17T04:46:06.216Z,3.50
2023-03-17T04:48:42.126Z,3.50
2023-03-17T04:51:12.296Z,3.70
2023-03-17T04:53:40.964Z,3.60
2023-03-17T04:56:09.537Z,3.70
2023-03-17T04:58:38.528Z,3.50
2023-03-17T05:01:08.780Z,3.80
2023-03-17T05:03:36.813Z,3.60
2023-03-17T05:06:05.683Z,3.50
2023-03-17T05:08:33.683Z,3.50
2023-03-17T05:11:02.269Z,3.70
2023-03-17T05:13:29.935Z,3.50
2023-03-17T05:15:59.503Z,3.50
2023-03-17T05:18:30.481Z,3.60
2023-03-17T05:21:01.723Z,3.40
2023-03-17T05:23:30.483Z,3.40
2023-03-17T05:25:59.448Z,3.40
2023-03-17T05:28:27.894Z,3.50
2023-03-17T05:30:55.772Z,3.40
2023-03-17T05:33:47.267Z,3.50
2023-03-17T05:36:15.110Z,3.50
2023-03-17T05:38:43.069Z,3.70
2023-03-17T05:41:11.140Z,3.50
2023-03-17T05:43:46.278Z,3.60
2023-03-17T05:46:18.024Z,3.60
2023-03-17T05:48:47.423Z,3.60
2023-03-17T05:51:15.786Z,3.40
2023-03-17T05:53:46.312Z,3.40
2023-03-17T05:56:14.206Z,3.50
2023-03-17T05:58:41.714Z,3.60
2023-03-17T06:01:09.538Z,3.70
2023-03-17T06:03:39.080Z,3.60
2023-03-17T06:06:11.030Z,3.80
2023-03-17T06:08:38.290Z,3.70
2023-03-17T06:11:06.110Z,3.70
2023-03-17T06:13:33.632Z,3.70
2023-03-17T06:16:01.010Z,3.80
2023-03-17T06:18:28.875Z,4.00
2023-03-17T06:21:02.212Z,4.00
2023-03-17T06:23:32.707Z,4.00
2023-03-17T06:29:02.084Z,4.10
2023-03-17T06:31:30.761Z,4.20
2023-03-17T06:34:00.846Z,4.20
2023-03-17T06:36:29.096Z,4.00
2023-03-17T06:39:03.718Z,4.20
2023-03-17T06:41:35.591Z,4.50
2023-03-17T06:44:03.353Z,4.30
2023-03-17T06:46:31.375Z,4.40
2023-03-17T06:49:10.541Z,4.30
2023-03-17T06:51:38.223Z,4.30
2023-03-17T06:54:15.171Z,4.20
2023-03-17T06:56:46.241Z,4.40
2023-03-17T06:59:14.706Z,4.30
2023-03-17T07:01:47.625Z,4.40
2023-03-17T07:04:17.903Z,4.70
2023-03-17T07:06:46.409Z,4.70
2023-03-17T07:09:17.018Z,5.00
2023-03-17T07:11:48.822Z,5.00
2023-03-17T07:14:16.966Z,5.00
2023-03-17T07:16:58.445Z,4.90
2023-03-17T07:19:31.583Z,4.90
2023-03-17T07:22:18.799Z,4.90
2023-03-17T07:24:52.708Z,4.70
2023-03-17T07:27:31.473Z,4.80
2023-03-17T07:30:10.958Z,5.00
2023-03-17T07:32:42.676Z,4.90
2023-03-17T07:35:27.611Z,4.90
2023-03-17T07:37:58.715Z,4.80
2023-03-17T07:40:27.751Z,4.70
2023-03-17T07:42:58.318Z,4.80
2023-03-17T07:45:26.420Z,4.70
2023-03-17T07:47:56.435Z,4.90
2023-03-17T07:50:24.610Z,4.80
2023-03-17T07:52:54.692Z,4.80
2023-03-17T07:55:22.658Z,4.80
2023-03-17T07:57:53.507Z,4.60
2023-03-17T08:01:08.921Z,4.60
2023-03-17T08:03:41.798Z,4.70
2023-03-17T08:06:34.301Z,4.60
2023-03-17T08:12:00.128Z,4.60
2023-03-17T08:14:30.513Z,4.50
2023-03-17T08:17:37.203Z,4.60
2023-03-17T08:20:14.705Z,4.40
2023-03-17T08:22:50.232Z,4.30
2023-03-17T08:25:21.054Z,4.40
2023-03-17T08:30:57.074Z,4.50
2023-03-17T08:33:48.672Z,4.40
2023-03-17T08:36:43.004Z,4.30
2023-03-17T08:39:13.102Z,4.20
2023-03-17T08:44:44.167Z,4.50
2023-03-17T08:50:10.531Z,4.30
2023-03-17T08:52:47.148Z,4.40
2023-03-17T08:55:15.471Z,4.30
2023-03-17T08:57:45.043Z,4.50
2023-03-17T09:00:17.428Z,4.50
2023-03-17T09:02:54.193Z,4.40
2023-03-17T09:05:27.051Z,4.50
2023-03-17T09:08:04.244Z,4.60
2023-03-17T09:10:36.906Z,4.60
2023-03-17T09:13:05.081Z,4.40
2023-03-17T09:15:34.335Z,4.40
2023-03-17T09:18:03.540Z,4.20
2023-03-17T09:20:33.207Z,4.40
2023-03-17T09:23:01.898Z,4.30
2023-03-17T09:25:35.696Z,4.60
2023-03-17T09:28:09.819Z,4.60
2023-03-17T09:30:46.561Z,4.60
2023-03-17T09:33:27.644Z,4.50
2023-03-17T09:36:01.667Z,4.70
2023-03-17T09:38:39.928Z,4.60
2023-03-17T09:41:13.962Z,4.80
2023-03-17T09:43:55.865Z,4.90
2023-03-17T09:46:49.400Z,4.90
2023-03-17T09:49:27.931Z,4.80
2023-03-17T09:52:02.361Z,4.80
2023-03-17T09:54:40.779Z,4.50
2023-03-17T09:57:32.334Z,4.70
2023-03-17T10:00:29.541Z,5.00
2023-03-17T10:02:58.421Z,5.10
2023-03-17T10:05:35.183Z,5.10
2023-03-17T10:08:30.795Z,5.30
2023-03-17T10:11:25.364Z,5.40
2023-03-17T10:14:03.319Z,5.60
2023-03-17T10:16:59.007Z,5.70
2023-03-17T10:19:44.704Z,5.40
2023-03-17T10:22:32.345Z,5.40
2023-03-17T10:28:22.260Z,5.40
2023-03-17T10:30:50.696Z,5.50
2023-03-17T10:33:18.731Z,5.60
2023-03-17T10:35:50.603Z,5.70
2023-03-17T10:38:19.440Z,5.80
2023-03-17T10:41:18.397Z,5.90
2023-03-17T10:43:48.935Z,6.00
2023-03-17T10:46:32.710Z,6.00
2023-03-17T10:49:24.787Z,6.10
2023-03-17T10:51:57.011Z,6.20
2023-03-17T10:54:29.061Z,6.20
2023-03-17T10:57:05.789Z,6.20
2023-03-17T10:59:44.331Z,6.30
2023-03-17T11:02:36.768Z,6.30
2023-03-17T11:05:09.762Z,6.50
2023-03-17T11:07:42.533Z,6.90
2023-03-17T11:10:24.846Z,7.00
2023-03-17T11:13:18.832Z,7.00
2023-03-17T11:16:25.378Z,7.10
2023-03-17T11:19:19.299Z,7.20
2023-03-17T11:22:19.006Z,7.40
2023-03-17T11:25:09.686Z,7.40
2023-03-17T11:28:01.516Z,7.50
2023-03-17T11:30:36.385Z,7.40
2023-03-17T11:33:28.527Z,7.20
2023-03-17T11:36:22.483Z,7.20
2023-03-17T11:39:12.577Z,7.00
2023-03-17T11:42:09.860Z,6.90
2023-03-17T11:44:52.698Z,6.90
2023-03-17T11:47:25.366Z,7.00
2023-03-17T11:50:07.780Z,7.10
2023-03-17T11:52:54.379Z,7.20
2023-03-17T11:55:41.182Z,7.30
2023-03-17T12:01:47.266Z,7.60
2023-03-17T12:04:36.253Z,7.60
2023-03-17T12:07:48.877Z,7.60
2023-03-17T12:10:41.389Z,7.60
2023-03-17T12:13:24.021Z,7.70
2023-03-17T12:16:02.252Z,7.80
2023-03-17T12:19:06.404Z,7.70
2023-03-17T12:21:57.450Z,7.90
2023-03-17T12:24:38.488Z,8.00
2023-03-17T12:27:30.776Z,8.00
2023-03-17T12:30:38.949Z,7.90
2023-03-17T12:33:28.316Z,7.90
2023-03-17T12:35:56.119Z,8.00
2023-03-17T12:39:05.743Z,8.20
2023-03-17T12:42:00.215Z,8.30
2023-03-17T12:45:01.258Z,8.30
2023-03-17T12:47:58.480Z,8.20
2023-03-17T12:50:36.932Z,8.10
2023-03-17T12:53:22.874Z,8.00
2023-03-17T12:55:56.543Z,7.90
2023-03-17T12:58:40.523Z,7.80
2023-03-17T13:01:29.262Z,7.70
2023-03-17T13:04:26.548Z,7.70
2023-03-17T13:07:15.210Z,7.70
2023-03-17T13:09:58.446Z,7.70
2023-03-17T13:13:12.539Z,7.50
2023-03-17T13:15:51.336Z,7.30
2023-03-17T13:18:25.761Z,7.40
2023-03-17T13:21:05.120Z,7.50
2023-03-17T13:23:47.053Z,7.40
2023-03-17T13:26:24.024Z,7.60
2023-03-17T13:29:03.731Z,7.70
2023-03-17T13:31:38.035Z,7.60
2023-03-17T13:34:18.229Z,7.40
2023-03-17T13:37:21.552Z,7.30
2023-03-17T13:40:12.798Z,7.20
2023-03-17T13:42:59.434Z,7.30
2023-03-17T13:45:45.213Z,7.30
2023-03-17T13:48:36.456Z,7.30
2023-03-17T13:51:23.559Z,7.40
2023-03-17T13:53:59.641Z,7.60
2023-03-17T13:56:45.913Z,7.60
2023-03-17T13:59:23.736Z,7.80
2023-03-17T14:02:08.695Z,7.80
2023-03-17T14:04:58.722Z,7.90
2023-03-17T14:08:22.230Z,7.80
2023-03-17T14:11:08.754Z,7.90
2023-03-17T14:13:46.037Z,7.70
2023-03-17T14:16:26.800Z,7.80
2023-03-17T14:19:18.350Z,7.90
2023-03-17T14:21:51.175Z,7.90
2023-03-17T14:24:26.806Z,7.90
2023-03-17T14:26:58.151Z,7.70
2023-03-17T14:29:35.455Z,7.60
2023-03-17T14:32:18.286Z,7.70
2023-03-17T14:34:55.596Z,7.50
2023-03-17T14:37:28.552Z,7.30
2023-03-17T14:40:02.805Z,7.20
2023-03-17T14:42:32.208Z,7.10
2023-03-17T14:45:09.232Z,7.00
2023-03-17T14:47:45.376Z,6.90
2023-03-17T14:50:40.885Z,6.90
2023-03-17T14:53:10.863Z,6.80
2023-03-17T14:55:43.535Z,6.80
2023-03-17T14:58:25.180Z,6.80
2023-03-17T15:01:10.053Z,6.80
2023-03-17T15:03:59.071Z,6.80
2023-03-17T15:06:37.409Z,6.60
2023-03-17T15:09:37.169Z,6.70
2023-03-17T15:12:17.622Z,6.60
2023-03-17T15:14:46.486Z,6.50
2023-03-17T15:17:39.956Z,6.50
2023-03-17T15:20:16.521Z,6.60
2023-03-17T15:22:48.726Z,6.60
2023-03-17T15:25:40.463Z,6.60
2023-03-17T15:28:18.134Z,6.70
2023-03-17T15:30:51.674Z,6.70
2023-03-17T15:33:35.765Z,6.60
2023-03-17T15:36:19.131Z,6.60
2023-03-17T15:38:57.634Z,6.50
2023-03-17T15:41:26.216Z,6.60
2023-03-17T15:43:57.327Z,6.60
2023-03-17T15:46:32.418Z,6.50
2023-03-17T15:49:00.866Z,6.40
2023-03-17T15:51:35.576Z,6.50
2023-03-17T15:54:04.686Z,6.50
2023-03-17T15:56:32.319Z,6.30
2023-03-17T15:59:03.160Z,6.40
2023-03-17T16:01:42.236Z,6.40
2023-03-17T16:04:13.181Z,6.40
2023-03-17T16:06:42.874Z,6.30
2023-03-17T16:09:17.147Z,6.30
2023-03-17T16:11:47.821Z,6.20
2023-03-17T16:14:15.599Z,6.10
2023-03-17T16:16:45.861Z,6.10
2023-03-17T16:19:25.111Z,6.00
2023-03-17T16:21:52.870Z,5.90
2023-03-17T16:24:33.736Z,6.00
2023-03-17T16:27:01.830Z,5.90
2023-03-17T16:29:43.191Z,5.80
2023-03-17T16:32:14.846Z,5.90
2023-03-17T16:34:42.002Z,5.70
2023-03-17T16:37:16.840Z,5.70
2023-03-17T16:39:44.040Z,5.60
2023-03-17T16:42:31.508Z,5.50
2023-03-17T16:44:59.501Z,5.50
2023-03-17T16:47:27.619Z,5.50
2023-03-17T16:49:54.914Z,5.50
2023-03-17T16:52:31.649Z,5.30
2023-03-17T16:55:07.467Z,5.30
2023-03-17T16:57:47.620Z,5.30
2023-03-17T17:00:20.466Z,5.40
2023-03-17T17:02:57.547Z,5.40
2023-03-17T17:05:30.431Z,5.20
2023-03-17T17:08:06.720Z,5.30
2023-03-17T17:10:38.527Z,5.20
2023-03-17T17:13:08.037Z,5.20
2023-03-17T17:15:37.510Z,5.20
2023-03-17T17:21:08.055Z,5.10
2023-03-17T17:23:38.445Z,5.00
2023-03-17T17:26:09.112Z,5.00
2023-03-17T17:28:39.537Z,4.90
2023-03-17T17:31:09.098Z,4.80
2023-03-17T17:33:39.205Z,4.80
2023-03-17T17:36:13.386Z,4.90
2023-03-17T17:38:41.040Z,5.00
2023-03-17T17:41:11.296Z,4.90
2023-03-17T17:43:42.762Z,4.90
2023-03-17T17:46:18.131Z,5.00
2023-03-17T17:48:49.062Z,5.00
2023-03-17T17:51:16.966Z,5.00
2023-03-17T17:53:44.709Z,5.10
2023-03-17T17:56:16.965Z,5.10
2023-03-17T17:58:45.374Z,5.10
2023-03-17T18:01:21.772Z,5.10
2023-03-17T18:03:56.178Z,5.00
2023-03-17T18:06:24.489Z,5.00
2023-03-17T18:08:51.948Z,5.20
2023-03-17T18:11:25.487Z,5.30
2023-03-17T18:13:55.440Z,5.20
2023-03-17T18:16:24.374Z,5.20
2023-03-17T18:18:51.959Z,5.30
2023-03-17T18:21:19.261Z,5.10
2023-03-17T18:23:50.248Z,5.20
2023-03-17T18:26:18.445Z,5.40
2023-03-17T18:28:50.546Z,5.10
2023-03-17T18:31:28.296Z,5.20
2023-03-17T18:34:00.172Z,5.20
2023-03-17T18:36:36.532Z,5.40
2023-03-17T18:39:07.334Z,5.30
2023-03-17T18:41:37.454Z,5.20
2023-03-17T18:44:07.491Z,5.30
2023-03-17T18:46:38.423Z,5.30
2023-03-17T18:49:11.634Z,5.10
2023-03-17T18:51:43.034Z,5.40
2023-03-17T18:54:14.400Z,5.20
2023-03-17T18:56:45.553Z,5.20
2023-03-17T18:59:16.805Z,5.30
2023-03-17T19:01:47.839Z,5.20
2023-03-17T19:04:15.641Z,5.00
2023-03-17T19:06:43.052Z,5.10
2023-03-17T19:09:12.460Z,5.30
2023-03-17T19:11:43.182Z,5.10
2023-03-17T19:14:16.055Z,5.20
2023-03-17T19:16:45.081Z,5.20
2023-03-17T19:19:15.977Z,5.10
2023-03-17T19:21:49.255Z,5.10
2023-03-17T19:24:18.844Z,5.10
2023-03-17T19:26:46.745Z,5.00
2023-03-17T19:29:16.865Z,5.00
2023-03-17T19:31:46.145Z,5.10
2023-03-17T19:34:15.728Z,5.10
2023-03-17T19:36:48.201Z,5.00
2023-03-17T19:39:19.556Z,5.00
2023-03-17T19:41:53.689Z,5.10
2023-03-17T19:44:25.479Z,5.10
2023-03-17T19:46:53.398Z,5.10
2023-03-17T19:49:21.463Z,5.10
2023-03-17T19:51:52.647Z,5.20
2023-03-17T19:54:23.489Z,5.40
2023-03-17T19:56:57.256Z,5.40
2023-03-17T19:59:24.988Z,5.30
2023-03-17T20:01:54.971Z,5.20
2023-03-17T20:04:25.770Z,5.10
2023-03-17T20:06:55.887Z,5.30
2023-03-17T20:09:26.257Z,5.40
2023-03-17T20:11:54.753Z,5.20
2023-03-17T20:14:22.605Z,5.30
2023-03-17T20:16:53.084Z,5.40
2023-03-17T20:19:22.709Z,5.30
2023-03-17T20:21:55.338Z,5.30
2023-03-17T20:24:23.377Z,5.10
2023-03-17T20:26:59.021Z,5.20
2023-03-17T20:29:26.122Z,5.30
2023-03-17T20:31:54.087Z,5.20
2023-03-17T20:34:22.019Z,5.30
2023-03-17T20:36:55.631Z,5.30
2023-03-17T20:39:23.081Z,5.30
2023-03-17T20:41:53.720Z,5.10
2023-03-17T20:44:26.854Z,5.20
2023-03-17T20:46:54.742Z,5.20
2023-03-17T20:49:28.356Z,5.10
2023-03-17T20:51:58.658Z,5.20
2023-03-17T20:54:26.130Z,5.10
2023-03-17T20:56:55.912Z,5.10
2023-03-17T20:59:24.911Z,5.00
2023-03-17T21:01:53.806Z,5.00
2023-03-17T21:04:26.359Z,5.00
2023-03-17T21:06:57.277Z,5.10
2023-03-17T21:09:24.809Z,5.00
2023-03-17T21:12:13.665Z,4.90
2023-03-17T21:14:48.721Z,5.00
2023-03-17T21:17:18.493Z,4.80
2023-03-17T21:19:47.733Z,4.80
2023-03-17T21:22:16.427Z,4.90
2023-03-17T21:24:47.342Z,4.90
2023-03-17T21:27:14.513Z,4.60
2023-03-17T21:29:42.308Z,4.90
2023-03-17T21:32:16.401Z,4.80
2023-03-17T21:34:43.943Z,4.90
2023-03-17T21:37:11.843Z,4.90
2023-03-17T21:39:46.133Z,4.80
2023-03-17T21:42:21.010Z,4.90
2023-03-17T21:44:52.367Z,5.00
2023-03-17T21:47:33.236Z,5.00
2023-03-17T21:50:04.221Z,5.10
2023-03-17T21:52:32.315Z,4.90
2023-03-17T21:55:00.023Z,4.90
2023-03-17T21:57:31.651Z,5.00
2023-03-17T21:59:58.889Z,5.00
2023-03-17T22:02:27.109Z,5.00
2023-03-17T22:04:57.759Z,5.10
2023-03-17T22:07:28.256Z,5.10
2023-03-17T22:09:58.318Z,5.10
2023-03-17T22:12:30.996Z,4.90
2023-03-17T22:14:58.944Z,5.00
2023-03-17T22:17:42.819Z,5.00
2023-03-17T22:20:11.603Z,5.00
2023-03-17T22:22:38.847Z,5.10
2023-03-17T22:25:11.807Z,4.90
2023-03-17T22:27:41.472Z,5.00
2023-03-17T22:30:12.174Z,5.10
2023-03-17T22:32:39.449Z,5.20
2023-03-17T22:35:11.704Z,5.20
2023-03-17T22:37:45.409Z,5.00
2023-03-17T22:40:13.037Z,5.00
2023-03-17T22:42:43.376Z,5.10
2023-03-17T22:45:13.088Z,5.10
2023-03-17T22:47:41.576Z,5.10
2023-03-17T22:50:09.571Z,5.20
2023-03-17T22:52:40.404Z,5.10
2023-03-17T22:55:08.369Z,5.20
2023-03-17T22:57:37.423Z,5.20
2023-03-17T23:00:16.586Z,5.30
2023-03-17T23:02:46.229Z,5.10
2023-03-17T23:05:14.867Z,5.10
2023-03-17T23:07:51.488Z,5.20
2023-03-17T23:10:27.653Z,5.30
2023-03-17T23:13:01.355Z,5.20
2023-03-17T23:15:31.310Z,5.30
2023-03-17T23:17:59.506Z,5.40
2023-03-17T23:20:27.230Z,5.30
2023-03-17T23:22:58.167Z,5.40
2023-03-17T23:25:25.891Z,5.60
2023-03-17T23:27:53.151Z,5.50
2023-03-17T23:30:23.451Z,5.40
2023-03-17T23:32:51.183Z,5.70
2023-03-17T23:35:19.804Z,5.70
2023-03-17T23:37:52.123Z,5.60
2023-03-17T23:40:20.956Z,5.80
2023-03-17T23:42:50.338Z,5.70
2023-03-17T23:45:26.438Z,5.80
2023-03-17T23:47:57.647Z,5.80
2023-03-17T23:50:27.437Z,5.90
2023-03-17T23:52:54.757Z,5.60
2023-03-17T23:55:24.761Z,5.70
2023-03-17T23:57:59.609Z,5.90
